Welcome to Northern Hawkes Bay. New Zealand.
PWS Header
      nz Flag



Hit Counter


W3C Valid W3C Valid logo


    Wairoa

Select any of the Stations below to visit their websites.










Historic Data from Weather Underground
Select the location of interest below. Wairoa is the default. Please have patience, this Data is slow to load in.
Northern Hawkes Bay Historical Data
Daily Summary for December 7, 2017 Units:  Both    English   Metric
« Previous Day
Next Day »
Daily Weekly Monthly Yearly Custom
  High: Low: Average:
Temperature: 76.8 °F /  24.9 °C 62.2 °F /  16.8 °C 69.4 °F /  20.8 °C
Dew Point: 63.9 °F /  17.7 °C 57.7 °F /  14.3 °C 61.3 °F /  16.3 °C
Humidity: 92% 56% 76%
Wind Speed: 6.9mph /  11.1km/h - 1.5mph /  2.4km/h
Wind Gust: 13mph /  20.9km/h - -
Wind- - SE
Pressure: 30.1 in /  1019.2 hPa 30 in /  1016.5 hPa -
Precipitation: 0 in /  0.0 mm    
Historical Graphs
 
 
Tabular Data for December 7, 2017
Time Temperature Dew Point Pressure Wind Wind Speed Wind Gust Humidity Rainfall Rate (Hourly) solar
00:02 66.2 °F /  19.0 °C 61.2 °F /  16.2 °C 30.1in /  1018.2hPa Calm   3.1mph /  5.0km/h 84% 0in /  0.0mm 0 W/m2
00:07 66 °F /  18.9 °C 61.3 °F /  16.3 °C 30.1in /  1018.5hPa ESE 0.7mph /  1.1km/h 3.1mph /  5.0km/h 85% 0in /  0.0mm 0 W/m2
00:12 66 °F /  18.9 °C 61.3 °F /  16.3 °C 30.1in /  1018.5hPa Calm   3.1mph /  5.0km/h 85% 0in /  0.0mm 0 W/m2
00:17 66 °F /  18.9 °C 61.3 °F /  16.3 °C 30.1in /  1018.5hPa Calm   3.1mph /  5.0km/h 85% 0in /  0.0mm 0 W/m2
00:35 66.2 °F /  19.0 °C 59.9 °F /  15.5 °C 30.1in /  1018.2hPa Calm   3.1mph /  5.0km/h 80% 0in /  0.0mm 0 W/m2
00:40 66.2 °F /  19.0 °C 59.9 °F /  15.5 °C 30.1in /  1018.2hPa SE 0.7mph /  1.1km/h 3.1mph /  5.0km/h 80% 0in /  0.0mm 0 W/m2
00:45 66.2 °F /  19.0 °C 60.3 °F /  15.7 °C 30.1in /  1018.2hPa Calm   3.1mph /  5.0km/h 81% 0in /  0.0mm 0 W/m2
00:50 66.2 °F /  19.0 °C 60.6 °F /  15.9 °C 30.1in /  1018.2hPa Calm   3.1mph /  5.0km/h 82% 0in /  0.0mm 0 W/m2
00:55 66 °F /  18.9 °C 61.2 °F /  16.2 °C 30.1in /  1018.2hPa Calm   1.6mph /  2.6km/h 84% 0in /  0.0mm 0 W/m2
01:00 66 °F /  18.9 °C 61.3 °F /  16.3 °C 30.1in /  1018.2hPa Calm   2.2mph /  3.5km/h 85% 0in /  0.0mm 0 W/m2
01:06 65.8 °F /  18.8 °C 61.5 °F /  16.4 °C 30.1in /  1018.2hPa Calm   2.2mph /  3.5km/h 86% 0in /  0.0mm 0 W/m2
01:11 65.7 °F /  18.7 °C 61.7 °F /  16.5 °C 30.1in /  1018.2hPa Calm   0.7mph /  1.1km/h 87% 0in /  0.0mm 0 W/m2
01:16 65.5 °F /  18.6 °C 61.5 °F /  16.4 °C 30.1in /  1018.2hPa Calm   0.7mph /  1.1km/h 87% 0in /  0.0mm 0 W/m2
01:22 65.5 °F /  18.6 °C 61.5 °F /  16.4 °C 30.1in /  1018.2hPa Calm   1.6mph /  2.6km/h 87% 0in /  0.0mm 0 W/m2
01:27 65.5 °F /  18.6 °C 61.9 °F /  16.6 °C 30.1in /  1018.2hPa Calm   1.6mph /  2.6km/h 88% 0in /  0.0mm 0 W/m2
01:32 65.5 °F /  18.6 °C 62.2 °F /  16.8 °C 30.1in /  1018.2hPa Calm   1.6mph /  2.6km/h 89% 0in /  0.0mm 0 W/m2
01:37 65.5 °F /  18.6 °C 62.4 °F /  16.9 °C 30.1in /  1018.2hPa NW 0.7mph /  1.1km/h 2.2mph /  3.5km/h 90% 0in /  0.0mm 0 W/m2
01:42 65.5 °F /  18.6 °C 62.8 °F /  17.1 °C 30.1in /  1018.2hPa NW 1.6mph /  2.6km/h 2.2mph /  3.5km/h 91% 0in /  0.0mm 0 W/m2
01:47 65.5 °F /  18.6 °C 62.8 °F /  17.1 °C 30.1in /  1018.2hPa Calm   2.2mph /  3.5km/h 91% 0in /  0.0mm 0 W/m2
01:52 65.3 °F /  18.5 °C 62.6 °F /  17.0 °C 30.1in /  1017.8hPa Calm   2.2mph /  3.5km/h 91% 0in /  0.0mm 0 W/m2
01:57 65.3 °F /  18.5 °C 62.2 °F /  16.8 °C 30.1in /  1018.2hPa Calm   1.6mph /  2.6km/h 90% 0in /  0.0mm 0 W/m2
02:02 65.3 °F /  18.5 °C 62.2 °F /  16.8 °C 30.1in /  1018.2hPa Calm   1.6mph /  2.6km/h 90% 0in /  0.0mm 0 W/m2
02:07 65.3 °F /  18.5 °C 62.2 °F /  16.8 °C 30.1in /  1018.2hPa Calm   1.6mph /  2.6km/h 90% 0in /  0.0mm 0 W/m2
02:12 65.3 °F /  18.5 °C 62.2 °F /  16.8 °C 30.1in /  1018.2hPa Calm   1.6mph /  2.6km/h 90% 0in /  0.0mm 0 W/m2
02:17 65.3 °F /  18.5 °C 62.1 °F /  16.7 °C 30.1in /  1018.2hPa Calm     89% 0in /  0.0mm 0 W/m2
02:22 65.3 °F /  18.5 °C 61.7 °F /  16.5 °C 30.1in /  1018.2hPa Calm     88% 0in /  0.0mm 0 W/m2
02:27 65.3 °F /  18.5 °C 61.7 °F /  16.5 °C 30.1in /  1018.2hPa Calm     88% 0in /  0.0mm 0 W/m2
02:32 65.3 °F /  18.5 °C 61.7 °F /  16.5 °C 30.1in /  1018.2hPa Calm     88% 0in /  0.0mm 0 W/m2
02:37 65.3 °F /  18.5 °C 61.7 °F /  16.5 °C 30.1in /  1018.2hPa Calm   2.2mph /  3.5km/h 88% 0in /  0.0mm 0 W/m2
02:42 65.3 °F /  18.5 °C 61.7 °F /  16.5 °C 30.1in /  1018.2hPa Calm   2.2mph /  3.5km/h 88% 0in /  0.0mm 0 W/m2
02:47 65.3 °F /  18.5 °C 61.7 °F /  16.5 °C 30.1in /  1018.2hPa Calm   2.2mph /  3.5km/h 88% 0in /  0.0mm 0 W/m2
02:52 65.3 °F /  18.5 °C 61.7 °F /  16.5 °C 30.1in /  1018.2hPa Calm   2.2mph /  3.5km/h 88% 0in /  0.0mm 0 W/m2
02:57 65.3 °F /  18.5 °C 61.7 °F /  16.5 °C 30.1in /  1018.2hPa Calm   1.6mph /  2.6km/h 88% 0in /  0.0mm 0 W/m2
03:02 65.3 °F /  18.5 °C 61.7 °F /  16.5 °C 30.1in /  1018.2hPa Calm   1.6mph /  2.6km/h 88% 0in /  0.0mm 0 W/m2
03:07 65.1 °F /  18.4 °C 61.5 °F /  16.4 °C 30.1in /  1017.8hPa Calm   1.6mph /  2.6km/h 88% 0in /  0.0mm 0 W/m2
03:12 65.1 °F /  18.4 °C 61.5 °F /  16.4 °C 30.1in /  1018.2hPa Calm   1.6mph /  2.6km/h 88% 0in /  0.0mm 0 W/m2
03:17 65.1 °F /  18.4 °C 61.5 °F /  16.4 °C 30.1in /  1018.2hPa SW 0.7mph /  1.1km/h 2.2mph /  3.5km/h 88% 0in /  0.0mm 0 W/m2
03:22 65.1 °F /  18.4 °C 61.5 °F /  16.4 °C 30.1in /  1018.2hPa SW 1.6mph /  2.6km/h 3.1mph /  5.0km/h 88% 0in /  0.0mm 0 W/m2
03:27 65.1 °F /  18.4 °C 61.5 °F /  16.4 °C 30.1in /  1018.2hPa Calm   3.1mph /  5.0km/h 88% 0in /  0.0mm 0 W/m2
03:32 65.1 °F /  18.4 °C 61.2 °F /  16.2 °C 30.1in /  1018.2hPa SW 0.7mph /  1.1km/h 3.1mph /  5.0km/h 87% 0in /  0.0mm 0 W/m2
03:37 65.3 °F /  18.5 °C 61.3 °F /  16.3 °C 30.1in /  1017.8hPa SW 0.7mph /  1.1km/h 3.1mph /  5.0km/h 87% 0in /  0.0mm 0 W/m2
03:42 65.3 °F /  18.5 °C 61.3 °F /  16.3 °C 30.1in /  1017.8hPa SW 1.6mph /  2.6km/h 3.8mph /  6.1km/h 87% 0in /  0.0mm 0 W/m2
03:47 65.3 °F /  18.5 °C 61.7 °F /  16.5 °C 30.1in /  1017.5hPa South 0.7mph /  1.1km/h 3.8mph /  6.1km/h 88% 0in /  0.0mm 0 W/m2
03:52 65.1 °F /  18.4 °C 61.5 °F /  16.4 °C 30.1in /  1017.8hPa SSE 1.6mph /  2.6km/h 3.8mph /  6.1km/h 88% 0in /  0.0mm 0 W/m2
03:57 65.1 °F /  18.4 °C 61.9 °F /  16.6 °C 30.1in /  1017.8hPa ESE 0.7mph /  1.1km/h 3.8mph /  6.1km/h 89% 0in /  0.0mm 0 W/m2
04:02 64.9 °F /  18.3 °C 61.3 °F /  16.3 °C 30.1in /  1017.8hPa East 0.7mph /  1.1km/h 3.8mph /  6.1km/h 88% 0in /  0.0mm 0 W/m2
04:07 64.9 °F /  18.3 °C 61.3 °F /  16.3 °C 30.1in /  1017.8hPa East 0.7mph /  1.1km/h 3.1mph /  5.0km/h 88% 0in /  0.0mm 0 W/m2
04:12 65.1 °F /  18.4 °C 61.5 °F /  16.4 °C 30.1in /  1017.8hPa East 1.6mph /  2.6km/h 3.1mph /  5.0km/h 88% 0in /  0.0mm 0 W/m2
04:17 65.1 °F /  18.4 °C 61.5 °F /  16.4 °C 30.1in /  1017.8hPa East 0.7mph /  1.1km/h 3.1mph /  5.0km/h 88% 0in /  0.0mm 0 W/m2
04:22 64.9 °F /  18.3 °C 61.5 °F /  16.4 °C 30.1in /  1017.8hPa Calm   2.2mph /  3.5km/h 89% 0in /  0.0mm 0 W/m2
04:27 64.9 °F /  18.3 °C 61.5 °F /  16.4 °C 30.1in /  1017.8hPa Calm   3.1mph /  5.0km/h 89% 0in /  0.0mm 0 W/m2
04:32 64.9 °F /  18.3 °C 61.5 °F /  16.4 °C 30.1in /  1017.8hPa Calm   3.1mph /  5.0km/h 89% 0in /  0.0mm 0 W/m2
04:37 64.9 °F /  18.3 °C 61.5 °F /  16.4 °C 30.1in /  1017.8hPa Calm     89% 0in /  0.0mm 0 W/m2
04:42 64.9 °F /  18.3 °C 62.1 °F /  16.7 °C 30.1in /  1017.8hPa East 1.6mph /  2.6km/h 3.1mph /  5.0km/h 90% 0in /  0.0mm 0 W/m2
04:47 64.9 °F /  18.3 °C 62.1 °F /  16.7 °C 30.1in /  1018.2hPa Calm   3.1mph /  5.0km/h 90% 0in /  0.0mm 0 W/m2
04:52 64.8 °F /  18.2 °C 62.1 °F /  16.7 °C 30.1in /  1018.2hPa Calm   2.2mph /  3.5km/h 91% 0in /  0.0mm 0 W/m2
04:57 64.8 °F /  18.2 °C 62.1 °F /  16.7 °C 30.1in /  1017.8hPa Calm     91% 0in /  0.0mm 0 W/m2
05:02 64.8 °F /  18.2 °C 62.1 °F /  16.7 °C 30.1in /  1017.8hPa Calm     91% 0in /  0.0mm 0 W/m2
05:07 64.8 °F /  18.2 °C 62.1 °F /  16.7 °C 30.1in /  1018.2hPa Calm   1.6mph /  2.6km/h 91% 0in /  0.0mm 0 W/m2
05:12 64.8 °F /  18.2 °C 62.1 °F /  16.7 °C 30.1in /  1018.2hPa Calm   2.2mph /  3.5km/h 91% 0in /  0.0mm 0 W/m2
05:17 64.6 °F /  18.1 °C 61.9 °F /  16.6 °C 30.1in /  1018.2hPa East 0.7mph /  1.1km/h 2.2mph /  3.5km/h 91% 0in /  0.0mm 0 W/m2
05:22 64.6 °F /  18.1 °C 62.2 °F /  16.8 °C 30.1in /  1018.2hPa Calm   2.2mph /  3.5km/h 92% 0in /  0.0mm 0 W/m2
05:27 64.6 °F /  18.1 °C 62.2 °F /  16.8 °C 30.1in /  1018.2hPa Calm   1.6mph /  2.6km/h 92% 0in /  0.0mm 0 W/m2
05:32 64.6 °F /  18.1 °C 62.2 °F /  16.8 °C 30.1in /  1018.2hPa Calm   1.6mph /  2.6km/h 92% 0in /  0.0mm 0 W/m2
05:37 64.6 °F /  18.1 °C 62.2 °F /  16.8 °C 30.1in /  1018.2hPa Calm   1.6mph /  2.6km/h 92% 0in /  0.0mm 0 W/m2
05:42 64.6 °F /  18.1 °C 62.2 °F /  16.8 °C 30.1in /  1018.2hPa East 0.7mph /  1.1km/h 2.2mph /  3.5km/h 92% 0in /  0.0mm 0 W/m2
05:47 64.6 °F /  18.1 °C 62.2 °F /  16.8 °C 30.1in /  1018.2hPa Calm   2.2mph /  3.5km/h 92% 0in /  0.0mm 0 W/m2
05:52 64.6 °F /  18.1 °C 62.2 °F /  16.8 °C 30.1in /  1018.2hPa Calm   1.6mph /  2.6km/h 92% 0in /  0.0mm 1 W/m2
05:57 64.6 °F /  18.1 °C 62.2 °F /  16.8 °C 30.1in /  1018.2hPa Calm   1.6mph /  2.6km/h 92% 0in /  0.0mm 4 W/m2
06:02 64.8 °F /  18.2 °C 62.4 °F /  16.9 °C 30.1in /  1018.2hPa Calm   1.6mph /  2.6km/h 92% 0in /  0.0mm 7 W/m2
06:07 64.8 °F /  18.2 °C 62.1 °F /  16.7 °C 30.1in /  1018.2hPa East 0.7mph /  1.1km/h 2.2mph /  3.5km/h 91% 0in /  0.0mm 11 W/m2
06:12 64.8 °F /  18.2 °C 62.1 °F /  16.7 °C 30.1in /  1018.2hPa Calm   2.2mph /  3.5km/h 91% 0in /  0.0mm 13 W/m2
06:17 64.9 °F /  18.3 °C 62.2 °F /  16.8 °C 30.1in /  1018.2hPa East 0.7mph /  1.1km/h 2.2mph /  3.5km/h 91% 0in /  0.0mm 17 W/m2
06:22 65.1 °F /  18.4 °C 62.1 °F /  16.7 °C 30.1in /  1018.5hPa East 0.7mph /  1.1km/h 2.2mph /  3.5km/h 90% 0in /  0.0mm 20 W/m2
06:27 65.1 °F /  18.4 °C 62.1 °F /  16.7 °C 30.1in /  1018.2hPa East 0.7mph /  1.1km/h 1.6mph /  2.6km/h 90% 0in /  0.0mm 24 W/m2
06:32 65.3 °F /  18.5 °C 62.2 °F /  16.8 °C 30.1in /  1018.2hPa Calm   1.6mph /  2.6km/h 90% 0in /  0.0mm 29 W/m2
06:37 65.3 °F /  18.5 °C 62.2 °F /  16.8 °C 30.1in /  1018.5hPa Calm   1.6mph /  2.6km/h 90% 0in /  0.0mm 37 W/m2
06:42 65.5 °F /  18.6 °C 62.4 °F /  16.9 °C 30.1in /  1018.5hPa Calm     90% 0in /  0.0mm 36 W/m2
06:47 65.7 °F /  18.7 °C 62.8 °F /  17.1 °C 30.1in /  1018.5hPa Calm     90% 0in /  0.0mm 37 W/m2
06:52 65.8 °F /  18.8 °C 62.8 °F /  17.1 °C 30.1in /  1018.5hPa Calm     90% 0in /  0.0mm 46 W/m2
06:57 66 °F /  18.9 °C 63 °F /  17.2 °C 30.1in /  1018.5hPa Calm     90% 0in /  0.0mm 52 W/m2
07:02 66.4 °F /  19.1 °C 62.8 °F /  17.1 °C 30.1in /  1018.5hPa Calm     88% 0in /  0.0mm 61 W/m2
07:07 66.7 °F /  19.3 °C 63.1 °F /  17.3 °C 30.1in /  1018.5hPa Calm     88% 0in /  0.0mm 73 W/m2
07:12 67.1 °F /  19.5 °C 63.5 °F /  17.5 °C 30.1in /  1018.5hPa Calm     88% 0in /  0.0mm 76 W/m2
07:17 67.5 °F /  19.7 °C 63.9 °F /  17.7 °C 30.1in /  1018.5hPa Calm     88% 0in /  0.0mm 74 W/m2
07:22 67.3 °F /  19.6 °C 63 °F /  17.2 °C 30.1in /  1018.5hPa ENE 1.6mph /  2.6km/h 2.2mph /  3.5km/h 86% 0in /  0.0mm 74 W/m2
07:27 66.9 °F /  19.4 °C 62.2 °F /  16.8 °C 30.1in /  1018.8hPa East 0.7mph /  1.1km/h 2.2mph /  3.5km/h 85% 0in /  0.0mm 69 W/m2
07:32 66.9 °F /  19.4 °C 62.2 °F /  16.8 °C 30.1in /  1018.5hPa ESE 0.7mph /  1.1km/h 2.2mph /  3.5km/h 85% 0in /  0.0mm 66 W/m2
07:37 66.7 °F /  19.3 °C 62.4 °F /  16.9 °C 30.1in /  1018.5hPa East 0.7mph /  1.1km/h 2.2mph /  3.5km/h 86% 0in /  0.0mm 64 W/m2
07:42 66.7 °F /  19.3 °C 62.4 °F /  16.9 °C 30.1in /  1018.5hPa Calm   2.2mph /  3.5km/h 86% 0in /  0.0mm 61 W/m2
07:47 66.7 °F /  19.3 °C 62.4 °F /  16.9 °C 30.1in /  1018.5hPa East 1.6mph /  2.6km/h 2.2mph /  3.5km/h 86% 0in /  0.0mm 61 W/m2
07:52 66.7 °F /  19.3 °C 62.4 °F /  16.9 °C 30.1in /  1018.5hPa ENE 1.6mph /  2.6km/h 3.1mph /  5.0km/h 86% 0in /  0.0mm 56 W/m2
07:57 66.6 °F /  19.2 °C 62.6 °F /  17.0 °C 30.1in /  1018.8hPa ENE 4.5mph /  7.2km/h 6mph /  9.7km/h 87% 0in /  0.0mm 45 W/m2
08:00 66.2 °F /  19.0 °C 62.2 °F /  16.8 °C 30.1in /  1018.8hPa ENE 2.2mph /  3.5km/h 6mph /  9.7km/h 87% 0in /  0.0mm 46 W/m2
08:05 66.2 °F /  19.0 °C 62.2 °F /  16.8 °C 30.1in /  1018.8hPa East 1.6mph /  2.6km/h 6mph /  9.7km/h 87% 0in /  0.0mm 57 W/m2
08:10 66.2 °F /  19.0 °C 62.2 °F /  16.8 °C 30.1in /  1018.8hPa ESE 0.7mph /  1.1km/h 3.8mph /  6.1km/h 87% 0in /  0.0mm 69 W/m2
08:15 66.2 °F /  19.0 °C 61.9 °F /  16.6 °C 30.1in /  1018.5hPa Calm   3.8mph /  6.1km/h 86% 0in /  0.0mm 81 W/m2
08:20 66.2 °F /  19.0 °C 61.5 °F /  16.4 °C 30.1in /  1018.8hPa East 1.6mph /  2.6km/h 4.5mph /  7.2km/h 85% 0in /  0.0mm 88 W/m2
08:25 66.4 °F /  19.1 °C 61.9 °F /  16.6 °C 30.1in /  1018.8hPa East 0.7mph /  1.1km/h 4.5mph /  7.2km/h 85% 0in /  0.0mm 99 W/m2
08:31 66.7 °F /  19.3 °C 61.9 °F /  16.6 °C 30.1in /  1018.8hPa ENE 1.6mph /  2.6km/h 3.8mph /  6.1km/h 84% 0in /  0.0mm 115 W/m2
08:36 66.9 °F /  19.4 °C 62.1 °F /  16.7 °C 30.1in /  1018.8hPa East 1.6mph /  2.6km/h 3.8mph /  6.1km/h 84% 0in /  0.0mm 121 W/m2
08:41 67.5 °F /  19.7 °C 62.4 °F /  16.9 °C 30.1in /  1018.8hPa Calm   3.8mph /  6.1km/h 84% 0in /  0.0mm 122 W/m2
08:46 67.8 °F /  19.9 °C 62.4 °F /  16.9 °C 30.1in /  1018.8hPa East 0.7mph /  1.1km/h 3.8mph /  6.1km/h 83% 0in /  0.0mm 128 W/m2
08:51 67.8 °F /  19.9 °C 62.1 °F /  16.7 °C 30.1in /  1018.8hPa East 0.7mph /  1.1km/h 3.1mph /  5.0km/h 82% 0in /  0.0mm 132 W/m2
08:56 68.2 °F /  20.1 °C 62.2 °F /  16.8 °C 30.1in /  1018.8hPa Calm   3.1mph /  5.0km/h 81% 0in /  0.0mm 147 W/m2
09:01 68.5 °F /  20.3 °C 62.2 °F /  16.8 °C 30.1in /  1018.8hPa Calm   3.1mph /  5.0km/h 80% 0in /  0.0mm 148 W/m2
09:06 68.9 °F /  20.5 °C 62.1 °F /  16.7 °C 30.1in /  1019.2hPa Calm   3.1mph /  5.0km/h 79% 0in /  0.0mm 153 W/m2
09:11 69.4 °F /  20.8 °C 62.2 °F /  16.8 °C 30.1in /  1019.2hPa Calm   3.1mph /  5.0km/h 78% 0in /  0.0mm 155 W/m2
09:16 69.4 °F /  20.8 °C 62.2 °F /  16.8 °C 30.1in /  1018.8hPa SSE 1.6mph /  2.6km/h 5.4mph /  8.7km/h 78% 0in /  0.0mm 164 W/m2
09:21 69.4 °F /  20.8 °C 62.2 °F /  16.8 °C 30.1in /  1019.2hPa SE 0.7mph /  1.1km/h 5.4mph /  8.7km/h 78% 0in /  0.0mm 174 W/m2
09:22 69.4 °F /  20.8 °C 62.2 °F /  16.8 °C 30.1in /  1018.8hPa SE 1.6mph /  2.6km/h 5.4mph /  8.7km/h 78% 0in /  0.0mm 177 W/m2
09:27 69.1 °F /  20.6 °C 62.1 °F /  16.7 °C 30.1in /  1018.8hPa East 3.1mph /  5.0km/h 5.4mph /  8.7km/h 78% 0in /  0.0mm 178 W/m2
09:32 69.1 °F /  20.6 °C 62.1 °F /  16.7 °C 30.1in /  1018.8hPa SE 2.2mph /  3.5km/h 5.4mph /  8.7km/h 78% 0in /  0.0mm 171 W/m2
09:37 68.9 °F /  20.5 °C 61.9 °F /  16.6 °C 30.1in /  1018.8hPa SSE 0.7mph /  1.1km/h 6.9mph /  11.1km/h 78% 0in /  0.0mm 173 W/m2
09:42 68.9 °F /  20.5 °C 62.1 °F /  16.7 °C 30.1in /  1018.8hPa SE 2.2mph /  3.5km/h 6.9mph /  11.1km/h 79% 0in /  0.0mm 178 W/m2
09:47 68.9 °F /  20.5 °C 62.4 °F /  16.9 °C 30.1in /  1018.8hPa SE 1.6mph /  2.6km/h 6mph /  9.7km/h 80% 0in /  0.0mm 185 W/m2
09:52 69.1 °F /  20.6 °C 62.8 °F /  17.1 °C 30.1in /  1018.8hPa SE 1.6mph /  2.6km/h 5.4mph /  8.7km/h 80% 0in /  0.0mm 191 W/m2
09:57 69.1 °F /  20.6 °C 62.2 °F /  16.8 °C 30.1in /  1018.8hPa ESE 3.1mph /  5.0km/h 6.9mph /  11.1km/h 79% 0in /  0.0mm 213 W/m2
10:02 69.4 °F /  20.8 °C 62.8 °F /  17.1 °C 30.1in /  1018.8hPa ESE 0.7mph /  1.1km/h 6.9mph /  11.1km/h 79% 0in /  0.0mm 243 W/m2
10:07 70 °F /  21.1 °C 62.4 °F /  16.9 °C 30.1in /  1018.8hPa SE 2.2mph /  3.5km/h 5.4mph /  8.7km/h 77% 0in /  0.0mm 259 W/m2
10:12 70.5 °F /  21.4 °C 62.2 °F /  16.8 °C 30.1in /  1018.8hPa SE 1.6mph /  2.6km/h 6mph /  9.7km/h 75% 0in /  0.0mm 278 W/m2
10:17 71.1 °F /  21.7 °C 62.4 °F /  16.9 °C 30.1in /  1018.8hPa SE 3.1mph /  5.0km/h 6mph /  9.7km/h 74% 0in /  0.0mm 302 W/m2
10:22 71.4 °F /  21.9 °C 62.2 °F /  16.8 °C 30.1in /  1018.8hPa SE 0.7mph /  1.1km/h 6mph /  9.7km/h 73% 0in /  0.0mm 326 W/m2
10:27 71.6 °F /  22.0 °C 61.7 °F /  16.5 °C 30.1in /  1018.8hPa SSE 3.1mph /  5.0km/h 6.9mph /  11.1km/h 71% 0in /  0.0mm 307 W/m2
10:32 71.2 °F /  21.8 °C 61.9 °F /  16.6 °C 30.1in /  1018.8hPa SE 0.7mph /  1.1km/h 9.2mph /  14.8km/h 72% 0in /  0.0mm 328 W/m2
10:37 71.8 °F /  22.1 °C 61.9 °F /  16.6 °C 30.1in /  1018.8hPa SSE 0.7mph /  1.1km/h 9.2mph /  14.8km/h 71% 0in /  0.0mm 318 W/m2
10:42 72 °F /  22.2 °C 61.7 °F /  16.5 °C 30.1in /  1018.8hPa SSE 1.6mph /  2.6km/h 6mph /  9.7km/h 70% 0in /  0.0mm 332 W/m2
10:47 72.1 °F /  22.3 °C 61.9 °F /  16.6 °C 30.1in /  1019.2hPa SE 3.1mph /  5.0km/h 6mph /  9.7km/h 70% 0in /  0.0mm 356 W/m2
10:52 72.1 °F /  22.3 °C 61.3 °F /  16.3 °C 30.1in /  1018.8hPa SE 0.7mph /  1.1km/h 6mph /  9.7km/h 69% 0in /  0.0mm 331 W/m2
10:57 72 °F /  22.2 °C 61 °F /  16.1 °C 30.1in /  1018.8hPa SE 1.6mph /  2.6km/h 7.6mph /  12.2km/h 68% 0in /  0.0mm 345 W/m2
11:02 71.8 °F /  22.1 °C 60.6 °F /  15.9 °C 30.1in /  1019.2hPa SE 3.8mph /  6.1km/h 7.6mph /  12.2km/h 68% 0in /  0.0mm 398 W/m2
11:07 72.1 °F /  22.3 °C 61 °F /  16.1 °C 30.1in /  1019.2hPa SE 1.6mph /  2.6km/h 6.9mph /  11.1km/h 68% 0in /  0.0mm 415 W/m2
11:12 72.3 °F /  22.4 °C 60.8 °F /  16.0 °C 30.1in /  1018.8hPa ESE 4.5mph /  7.2km/h 6.9mph /  11.1km/h 67% 0in /  0.0mm 415 W/m2
11:17 72.3 °F /  22.4 °C 60.8 °F /  16.0 °C 30.1in /  1019.2hPa ESE 3.1mph /  5.0km/h 7.6mph /  12.2km/h 67% 0in /  0.0mm 441 W/m2
11:22 72.5 °F /  22.5 °C 61 °F /  16.1 °C 30.1in /  1018.8hPa SE 3.8mph /  6.1km/h 7.6mph /  12.2km/h 67% 0in /  0.0mm 441 W/m2
11:27 72.7 °F /  22.6 °C 60.6 °F /  15.9 °C 30.1in /  1019.2hPa SSE 0.7mph /  1.1km/h 6.9mph /  11.1km/h 66% 0in /  0.0mm 498 W/m2
11:32 73.6 °F /  23.1 °C 61.5 °F /  16.4 °C 30.1in /  1018.8hPa SSE 2.2mph /  3.5km/h 6.9mph /  11.1km/h 66% 0in /  0.0mm 654 W/m2
11:37 73.2 °F /  22.9 °C 60.3 °F /  15.7 °C 30.1in /  1019.2hPa SSE 3.1mph /  5.0km/h 8.3mph /  13.4km/h 64% 0in /  0.0mm 479 W/m2
11:42 72.9 °F /  22.7 °C 60.4 °F /  15.8 °C 30.1in /  1018.8hPa SSE 3.8mph /  6.1km/h 9.8mph /  15.8km/h 65% 0in /  0.0mm 468 W/m2
11:47 72.3 °F /  22.4 °C 60.8 °F /  16.0 °C 30.1in /  1019.2hPa SE 2.2mph /  3.5km/h 10.7mph /  17.2km/h 67% 0in /  0.0mm 549 W/m2
11:52 72.7 °F /  22.6 °C 60.6 °F /  15.9 °C 30.1in /  1018.8hPa SSE 3.8mph /  6.1km/h 10.7mph /  17.2km/h 66% 0in /  0.0mm 473 W/m2
11:57 72.7 °F /  22.6 °C 60.3 °F /  15.7 °C 30.1in /  1019.2hPa Calm   9.8mph /  15.8km/h 65% 0in /  0.0mm 455 W/m2
12:02 73 °F /  22.8 °C 60.6 °F /  15.9 °C 30.1in /  1019.2hPa SE 3.8mph /  6.1km/h 8.3mph /  13.4km/h 65% 0in /  0.0mm 631 W/m2
12:07 73.8 °F /  23.2 °C 61.7 °F /  16.5 °C 30.1in /  1018.8hPa ESE 3.1mph /  5.0km/h 7.6mph /  12.2km/h 66% 0in /  0.0mm 482 W/m2
12:12 73.2 °F /  22.9 °C 61.2 °F /  16.2 °C 30.1in /  1019.2hPa ESE 5.4mph /  8.7km/h 7.6mph /  12.2km/h 66% 0in /  0.0mm 514 W/m2
12:17 73 °F /  22.8 °C 60.6 °F /  15.9 °C 30.1in /  1018.8hPa SE 2.2mph /  3.5km/h 8.3mph /  13.4km/h 65% 0in /  0.0mm 630 W/m2
12:22 72.5 °F /  22.5 °C 60.4 °F /  15.8 °C 30.1in /  1018.8hPa SE 4.5mph /  7.2km/h 8.3mph /  13.4km/h 66% 0in /  0.0mm 636 W/m2
12:27 72.9 °F /  22.7 °C 61 °F /  16.1 °C 30.1in /  1018.8hPa SSE 5.4mph /  8.7km/h 9.2mph /  14.8km/h 66% 0in /  0.0mm 515 W/m2
12:32 73.2 °F /  22.9 °C 60.8 °F /  16.0 °C 30.1in /  1018.8hPa SSE 2.2mph /  3.5km/h 9.2mph /  14.8km/h 65% 0in /  0.0mm 642 W/m2
12:37 73.4 °F /  23.0 °C 61.3 °F /  16.3 °C 30.1in /  1018.8hPa SE 3.1mph /  5.0km/h 9.2mph /  14.8km/h 66% 0in /  0.0mm 992 W/m2
12:42 74.1 °F /  23.4 °C 61.5 °F /  16.4 °C 30.1in /  1018.8hPa SE 3.1mph /  5.0km/h 9.2mph /  14.8km/h 65% 0in /  0.0mm 726 W/m2
12:47 73.9 °F /  23.3 °C 61.5 °F /  16.4 °C 30.1in /  1018.8hPa SE 3.1mph /  5.0km/h 9.2mph /  14.8km/h 65% 0in /  0.0mm 739 W/m2
12:52 73.9 °F /  23.3 °C 61.5 °F /  16.4 °C 30.1in /  1018.8hPa SE 6mph /  9.7km/h 9.2mph /  14.8km/h 65% 0in /  0.0mm 975 W/m2
12:57 73.6 °F /  23.1 °C 60.6 °F /  15.9 °C 30.1in /  1018.8hPa SSE 5.4mph /  8.7km/h 9.2mph /  14.8km/h 64% 0in /  0.0mm 899 W/m2
13:02 74.1 °F /  23.4 °C 62.1 °F /  16.7 °C 30.1in /  1018.8hPa SSE 1.6mph /  2.6km/h 9.2mph /  14.8km/h 66% 0in /  0.0mm 871 W/m2
13:07 74.5 °F /  23.6 °C 62.1 °F /  16.7 °C 30.1in /  1018.8hPa SSE 2.2mph /  3.5km/h 8.3mph /  13.4km/h 65% 0in /  0.0mm 835 W/m2
13:12 74.8 °F /  23.8 °C 61.9 °F /  16.6 °C 30.1in /  1018.8hPa SE 2.2mph /  3.5km/h 10.7mph /  17.2km/h 64% 0in /  0.0mm 835 W/m2
13:17 74.3 °F /  23.5 °C 61 °F /  16.1 °C 30.1in /  1018.8hPa ESE 1.6mph /  2.6km/h 10.7mph /  17.2km/h 63% 0in /  0.0mm 827 W/m2
13:22 73.4 °F /  23.0 °C 61 °F /  16.1 °C 30.1in /  1018.8hPa SSE 5.4mph /  8.7km/h 10.7mph /  17.2km/h 65% 0in /  0.0mm 819 W/m2
13:27 73.8 °F /  23.2 °C 61.3 °F /  16.3 °C 30.1in /  1018.5hPa SSE 2.2mph /  3.5km/h 10.7mph /  17.2km/h 65% 0in /  0.0mm 823 W/m2
13:32 74.3 °F /  23.5 °C 61 °F /  16.1 °C 30.1in /  1018.5hPa SE 3.8mph /  6.1km/h 9.2mph /  14.8km/h 63% 0in /  0.0mm 855 W/m2
13:37 74.3 °F /  23.5 °C 59.5 °F /  15.3 °C 30.1in /  1018.5hPa SE 2.2mph /  3.5km/h 9.2mph /  14.8km/h 60% 0in /  0.0mm 812 W/m2
13:42 74.8 °F /  23.8 °C 59.2 °F /  15.1 °C 30.1in /  1018.5hPa ESE 3.8mph /  6.1km/h 9.2mph /  14.8km/h 58% 0in /  0.0mm 804 W/m2
13:47 74.7 °F /  23.7 °C 58.8 °F /  14.9 °C 30.1in /  1018.2hPa East 2.2mph /  3.5km/h 7.6mph /  12.2km/h 58% 0in /  0.0mm 802 W/m2
13:52 75 °F /  23.9 °C 59.4 °F /  15.2 °C 30.1in /  1018.2hPa ESE 2.2mph /  3.5km/h 10.7mph /  17.2km/h 58% 0in /  0.0mm 736 W/m2
13:57 75.2 °F /  24.0 °C 58.5 °F /  14.7 °C 30.1in /  1018.2hPa SE 3.1mph /  5.0km/h 10.7mph /  17.2km/h 56% 0in /  0.0mm 787 W/m2
14:02 75.2 °F /  24.0 °C 58.5 °F /  14.7 °C 30.1in /  1018.2hPa SE 3.1mph /  5.0km/h 10.7mph /  17.2km/h 56% 0in /  0.0mm 773 W/m2
14:07 74.8 °F /  23.8 °C 59.5 °F /  15.3 °C 30.1in /  1018.2hPa SE 2.2mph /  3.5km/h 10.7mph /  17.2km/h 59% 0in /  0.0mm 768 W/m2
14:12 75 °F /  23.9 °C 58.8 °F /  14.9 °C 30.1in /  1018.2hPa ESE 3.8mph /  6.1km/h 10.7mph /  17.2km/h 57% 0in /  0.0mm 761 W/m2
14:17 74.8 °F /  23.8 °C 59.2 °F /  15.1 °C 30.1in /  1018.2hPa SE 3.8mph /  6.1km/h 9.2mph /  14.8km/h 58% 0in /  0.0mm 755 W/m2
14:22 75.2 °F /  24.0 °C 59 °F /  15.0 °C 30.1in /  1018.2hPa SE 1.6mph /  2.6km/h 9.8mph /  15.8km/h 57% 0in /  0.0mm 748 W/m2
14:27 75.2 °F /  24.0 °C 59 °F /  15.0 °C 30.1in /  1018.2hPa SE 4.5mph /  7.2km/h 9.8mph /  15.8km/h 57% 0in /  0.0mm 744 W/m2
14:32 75.4 °F /  24.1 °C 59.5 °F /  15.3 °C 30.1in /  1017.8hPa SE 3.8mph /  6.1km/h 8.3mph /  13.4km/h 58% 0in /  0.0mm 735 W/m2
14:37 75.6 °F /  24.2 °C 59.7 °F /  15.4 °C 30.1in /  1017.8hPa SE 3.1mph /  5.0km/h 9.8mph /  15.8km/h 58% 0in /  0.0mm 727 W/m2
14:42 75 °F /  23.9 °C 59.7 °F /  15.4 °C 30.1in /  1017.8hPa SE 3.1mph /  5.0km/h 9.8mph /  15.8km/h 59% 0in /  0.0mm 717 W/m2
14:47 75.2 °F /  24.0 °C 59.4 °F /  15.2 °C 30.1in /  1017.8hPa SE 1.6mph /  2.6km/h 9.8mph /  15.8km/h 58% 0in /  0.0mm 709 W/m2
14:52 75.4 °F /  24.1 °C 59.2 °F /  15.1 °C 30.1in /  1018.2hPa SSE 2.2mph /  3.5km/h 9.2mph /  14.8km/h 57% 0in /  0.0mm 697 W/m2
14:57 75.9 °F /  24.4 °C 59.2 °F /  15.1 °C 30.1in /  1017.8hPa SE 3.1mph /  5.0km/h 9.2mph /  14.8km/h 56% 0in /  0.0mm 694 W/m2
15:02 75.4 °F /  24.1 °C 59.2 °F /  15.1 °C 30.1in /  1017.8hPa SE 3.8mph /  6.1km/h 9.2mph /  14.8km/h 57% 0in /  0.0mm 685 W/m2
15:07 75.4 °F /  24.1 °C 59.2 °F /  15.1 °C 30.1in /  1017.8hPa SSE 3.8mph /  6.1km/h 12.1mph /  19.5km/h 57% 0in /  0.0mm 676 W/m2
15:12 75.6 °F /  24.2 °C 59.7 °F /  15.4 °C 30.1in /  1017.8hPa SSE 3.8mph /  6.1km/h 12.1mph /  19.5km/h 58% 0in /  0.0mm 670 W/m2
15:17 75.9 °F /  24.4 °C 59.2 °F /  15.1 °C 30.1in /  1017.8hPa SE 3.1mph /  5.0km/h 9.8mph /  15.8km/h 56% 0in /  0.0mm 659 W/m2
15:22 75.9 °F /  24.4 °C 59.5 °F /  15.3 °C 30.1in /  1017.8hPa ESE 3.1mph /  5.0km/h 9.8mph /  15.8km/h 57% 0in /  0.0mm 648 W/m2
15:27 75.6 °F /  24.2 °C 59.7 °F /  15.4 °C 30.1in /  1017.8hPa ESE 5.4mph /  8.7km/h 10.7mph /  17.2km/h 58% 0in /  0.0mm 633 W/m2
15:32 75.4 °F /  24.1 °C 59.2 °F /  15.1 °C 30.1in /  1017.8hPa SE 4.5mph /  7.2km/h 10.7mph /  17.2km/h 57% 0in /  0.0mm 627 W/m2
15:37 75 °F /  23.9 °C 60.3 °F /  15.7 °C 30.1in /  1017.8hPa SE 4.5mph /  7.2km/h 9.8mph /  15.8km/h 60% 0in /  0.0mm 616 W/m2
15:42 75.2 °F /  24.0 °C 59.9 °F /  15.5 °C 30.1in /  1017.5hPa ESE 4.5mph /  7.2km/h 9.8mph /  15.8km/h 59% 0in /  0.0mm 602 W/m2
15:47 75.4 °F /  24.1 °C 60.1 °F /  15.6 °C 30.1in /  1017.5hPa SE 5.4mph /  8.7km/h 10.7mph /  17.2km/h 59% 0in /  0.0mm 596 W/m2
15:52 75.2 °F /  24.0 °C 60.4 °F /  15.8 °C 30.1in /  1017.5hPa SE 3.8mph /  6.1km/h 10.7mph /  17.2km/h 60% 0in /  0.0mm 585 W/m2
15:57 75.2 °F /  24.0 °C 60.4 °F /  15.8 °C 30.1in /  1017.5hPa ESE 3.1mph /  5.0km/h 9.2mph /  14.8km/h 60% 0in /  0.0mm 577 W/m2
16:02 75.4 °F /  24.1 °C 59.5 °F /  15.3 °C 30.1in /  1017.5hPa ESE 5.4mph /  8.7km/h 11.4mph /  18.3km/h 58% 0in /  0.0mm 561 W/m2
16:07 75 °F /  23.9 °C 60.3 °F /  15.7 °C 30.1in /  1017.5hPa East 3.8mph /  6.1km/h 11.4mph /  18.3km/h 60% 0in /  0.0mm 551 W/m2
16:16 75.6 °F /  24.2 °C 61.2 °F /  16.2 °C 30in /  1017.2hPa SE 2.2mph /  3.5km/h 9.8mph /  15.8km/h 61% 0in /  0.0mm 534 W/m2
16:21 75.2 °F /  24.0 °C 59.9 °F /  15.5 °C 30.1in /  1017.5hPa SE 2.2mph /  3.5km/h 10.7mph /  17.2km/h 59% 0in /  0.0mm 523 W/m2
16:23 75 °F /  23.9 °C 60.3 °F /  15.7 °C 30in /  1017.2hPa SE 5.4mph /  8.7km/h 13mph /  20.9km/h 60% 0in /  0.0mm 524 W/m2
16:25 75.2 °F /  24.0 °C 59.9 °F /  15.5 °C 30in /  1017.2hPa SE 4.5mph /  7.2km/h 13mph /  20.9km/h 59% 0in /  0.0mm 517 W/m2
16:31 75.2 °F /  24.0 °C 59.9 °F /  15.5 °C 30in /  1017.2hPa SE 5.4mph /  8.7km/h 13mph /  20.9km/h 59% 0in /  0.0mm 505 W/m2
16:36 74.8 °F /  23.8 °C 60.4 °F /  15.8 °C 30in /  1017.2hPa ESE 5.4mph /  8.7km/h 12.1mph /  19.5km/h 61% 0in /  0.0mm 494 W/m2
16:41 75 °F /  23.9 °C 61.5 °F /  16.4 °C 30in /  1017.2hPa SE 3.1mph /  5.0km/h 10.7mph /  17.2km/h 63% 0in /  0.0mm 482 W/m2
16:46 75.4 °F /  24.1 °C 61 °F /  16.1 °C 30in /  1017.2hPa ESE 3.1mph /  5.0km/h 9.2mph /  14.8km/h 61% 0in /  0.0mm 469 W/m2
16:51 75.7 °F /  24.3 °C 61.3 °F /  16.3 °C 30in /  1016.8hPa ESE 3.8mph /  6.1km/h 9.2mph /  14.8km/h 61% 0in /  0.0mm 460 W/m2
16:56 75.6 °F /  24.2 °C 61.7 °F /  16.5 °C 30in /  1016.8hPa SE 2.2mph /  3.5km/h 9.2mph /  14.8km/h 62% 0in /  0.0mm 446 W/m2
17:01 75.7 °F /  24.3 °C 61.3 °F /  16.3 °C 30in /  1017.2hPa SE 1.6mph /  2.6km/h 9.2mph /  14.8km/h 61% 0in /  0.0mm 433 W/m2
17:06 75.2 °F /  24.0 °C 60.4 °F /  15.8 °C 30in /  1016.8hPa SSE 6.9mph /  11.1km/h 10.7mph /  17.2km/h 60% 0in /  0.0mm 423 W/m2
17:11 74.7 °F /  23.7 °C 61.7 °F /  16.5 °C 30in /  1016.8hPa SSE 3.1mph /  5.0km/h 11.4mph /  18.3km/h 64% 0in /  0.0mm 406 W/m2
17:16 74.5 °F /  23.6 °C 62.1 °F /  16.7 °C 30in /  1016.8hPa SE 4.5mph /  7.2km/h 11.4mph /  18.3km/h 65% 0in /  0.0mm 393 W/m2
17:21 74.8 °F /  23.8 °C 61.9 °F /  16.6 °C 30in /  1016.8hPa ESE 3.8mph /  6.1km/h 11.4mph /  18.3km/h 64% 0in /  0.0mm 380 W/m2
17:26 74.5 °F /  23.6 °C 61.5 °F /  16.4 °C 30in /  1016.8hPa ESE 6mph /  9.7km/h 9.8mph /  15.8km/h 64% 0in /  0.0mm 368 W/m2
17:31 74.5 °F /  23.6 °C 62.1 °F /  16.7 °C 30in /  1016.8hPa SE 2.2mph /  3.5km/h 9.8mph /  15.8km/h 65% 0in /  0.0mm 358 W/m2
17:36 74.8 °F /  23.8 °C 61.9 °F /  16.6 °C 30in /  1016.8hPa ESE 3.8mph /  6.1km/h 10.7mph /  17.2km/h 64% 0in /  0.0mm 344 W/m2
17:42 74.5 °F /  23.6 °C 62.1 °F /  16.7 °C 30in /  1016.8hPa ESE 4.5mph /  7.2km/h 10.7mph /  17.2km/h 65% 0in /  0.0mm 328 W/m2
17:47 74.5 °F /  23.6 °C 62.4 °F /  16.9 °C 30in /  1016.8hPa ESE 5.4mph /  8.7km/h 10.7mph /  17.2km/h 66% 0in /  0.0mm 318 W/m2
17:52 74.7 °F /  23.7 °C 62.1 °F /  16.7 °C 30in /  1016.5hPa SE 3.8mph /  6.1km/h 9.8mph /  15.8km/h 65% 0in /  0.0mm 305 W/m2
17:57 74.1 °F /  23.4 °C 62.1 °F /  16.7 °C 30in /  1016.5hPa SE 4.5mph /  7.2km/h 8.3mph /  13.4km/h 66% 0in /  0.0mm 292 W/m2
18:02 73.9 °F /  23.3 °C 61.9 °F /  16.6 °C 30in /  1016.5hPa SE 6.9mph /  11.1km/h 9.8mph /  15.8km/h 66% 0in /  0.0mm 282 W/m2
18:07 73.6 °F /  23.1 °C 62.1 °F /  16.7 °C 30in /  1016.5hPa SE 4.5mph /  7.2km/h 9.8mph /  15.8km/h 67% 0in /  0.0mm 268 W/m2
18:12 73.8 °F /  23.2 °C 62.2 °F /  16.8 °C 30in /  1016.8hPa SE 3.8mph /  6.1km/h 9.8mph /  15.8km/h 67% 0in /  0.0mm 256 W/m2
18:17 73.2 °F /  22.9 °C 61.5 °F /  16.4 °C 30in /  1016.5hPa ESE 5.4mph /  8.7km/h 13mph /  20.9km/h 67% 0in /  0.0mm 245 W/m2
18:22 73.6 °F /  23.1 °C 62.4 °F /  16.9 °C 30in /  1016.5hPa ESE 3.8mph /  6.1km/h 13mph /  20.9km/h 68% 0in /  0.0mm 233 W/m2
18:27 73.6 °F /  23.1 °C 62.1 °F /  16.7 °C 30in /  1016.5hPa ESE 3.1mph /  5.0km/h 9.8mph /  15.8km/h 67% 0in /  0.0mm 223 W/m2
18:32 73.8 °F /  23.2 °C 62.6 °F /  17.0 °C 30in /  1016.5hPa ESE 3.8mph /  6.1km/h 9.8mph /  15.8km/h 68% 0in /  0.0mm 213 W/m2
18:37 73.2 °F /  22.9 °C 61.5 °F /  16.4 °C 30in /  1016.8hPa ESE 2.2mph /  3.5km/h 12.1mph /  19.5km/h 67% 0in /  0.0mm 201 W/m2
18:42 73.4 °F /  23.0 °C 61.9 °F /  16.6 °C 30in /  1016.8hPa ESE 3.8mph /  6.1km/h 12.1mph /  19.5km/h 67% 0in /  0.0mm 194 W/m2
18:47 74.1 °F /  23.4 °C 62.4 °F /  16.9 °C 30in /  1016.5hPa SE 0.7mph /  1.1km/h 7.6mph /  12.2km/h 67% 0in /  0.0mm 181 W/m2
18:52 75 °F /  23.9 °C 63 °F /  17.2 °C 30in /  1016.8hPa Calm   6.9mph /  11.1km/h 66% 0in /  0.0mm 172 W/m2
18:57 76.1 °F /  24.5 °C 63.1 °F /  17.3 °C 30in /  1016.8hPa ESE 1.6mph /  2.6km/h 5.4mph /  8.7km/h 64% 0in /  0.0mm 163 W/m2
19:02 75.9 °F /  24.4 °C 63 °F /  17.2 °C 30in /  1016.8hPa Calm   3.8mph /  6.1km/h 64% 0in /  0.0mm 153 W/m2
19:07 76.1 °F /  24.5 °C 63.1 °F /  17.3 °C 30in /  1016.8hPa Calm   3.8mph /  6.1km/h 64% 0in /  0.0mm 143 W/m2
19:12 75.7 °F /  24.3 °C 61.9 °F /  16.6 °C 30in /  1016.8hPa Calm   3.1mph /  5.0km/h 62% 0in /  0.0mm 132 W/m2
19:17 75.4 °F /  24.1 °C 62.4 °F /  16.9 °C 30in /  1016.8hPa East 2.2mph /  3.5km/h 3.8mph /  6.1km/h 64% 0in /  0.0mm 123 W/m2
19:22 75.2 °F /  24.0 °C 62.2 °F /  16.8 °C 30in /  1016.8hPa East 0.7mph /  1.1km/h 3.8mph /  6.1km/h 64% 0in /  0.0mm 114 W/m2
19:27 75.2 °F /  24.0 °C 62.2 °F /  16.8 °C 30in /  1016.8hPa Calm   3.8mph /  6.1km/h 64% 0in /  0.0mm 104 W/m2
19:32 76.6 °F /  24.8 °C 63.1 °F /  17.3 °C 30in /  1016.5hPa Calm   1.6mph /  2.6km/h 63% 0in /  0.0mm 93 W/m2
19:37 76.1 °F /  24.5 °C 62.6 °F /  17.0 °C 30in /  1016.8hPa Calm   0.7mph /  1.1km/h 63% 0in /  0.0mm 82 W/m2
19:42 76.8 °F /  24.9 °C 63 °F /  17.2 °C 30in /  1016.8hPa Calm   0.7mph /  1.1km/h 62% 0in /  0.0mm 70 W/m2
19:47 75.9 °F /  24.4 °C 63 °F /  17.2 °C 30in /  1016.8hPa Calm   0.7mph /  1.1km/h 64% 0in /  0.0mm 56 W/m2
19:52 75.7 °F /  24.3 °C 62.8 °F /  17.1 °C 30in /  1017.2hPa Calm   0.7mph /  1.1km/h 64% 0in /  0.0mm 44 W/m2
19:58 75.2 °F /  24.0 °C 62.2 °F /  16.8 °C 30in /  1016.8hPa Calm   0.7mph /  1.1km/h 64% 0in /  0.0mm 35 W/m2
20:03 73.4 °F /  23.0 °C 62.2 °F /  16.8 °C 30in /  1017.2hPa Calm   0.7mph /  1.1km/h 68% 0in /  0.0mm 22 W/m2
20:08 71.6 °F /  22.0 °C 61.3 °F /  16.3 °C 30in /  1016.8hPa Calm     70% 0in /  0.0mm 11 W/m2
20:13 70.3 °F /  21.3 °C 61.3 °F /  16.3 °C 30in /  1017.2hPa Calm     73% 0in /  0.0mm 6 W/m2
20:18 69.3 °F /  20.7 °C 61.9 °F /  16.6 °C 30in /  1017.2hPa NW 1.6mph /  2.6km/h 3.1mph /  5.0km/h 77% 0in /  0.0mm 4 W/m2
20:23 68.7 °F /  20.4 °C 62.1 °F /  16.7 °C 30in /  1017.2hPa Calm   3.1mph /  5.0km/h 79% 0in /  0.0mm 1 W/m2
20:28 68.5 °F /  20.3 °C 62.4 °F /  16.9 °C 30in /  1017.2hPa NNW 1.6mph /  2.6km/h 3.1mph /  5.0km/h 81% 0in /  0.0mm 0 W/m2
20:33 68.2 °F /  20.1 °C 62.2 °F /  16.8 °C 30.1in /  1017.5hPa NNW 2.2mph /  3.5km/h 4.5mph /  7.2km/h 81% 0in /  0.0mm 0 W/m2
20:38 67.8 °F /  19.9 °C 62.4 °F /  16.9 °C 30.1in /  1017.5hPa Calm   4.5mph /  7.2km/h 83% 0in /  0.0mm 0 W/m2
20:43 67.6 °F /  19.8 °C 62.8 °F /  17.1 °C 30.1in /  1017.8hPa NNW 0.7mph /  1.1km/h 4.5mph /  7.2km/h 84% 0in /  0.0mm 0 W/m2
20:48 67.5 °F /  19.7 °C 62.4 °F /  16.9 °C 30.1in /  1017.5hPa NNW 1.6mph /  2.6km/h 4.5mph /  7.2km/h 84% 0in /  0.0mm 0 W/m2
20:53 67.1 °F /  19.5 °C 62.1 °F /  16.7 °C 30.1in /  1017.5hPa NNW 1.6mph /  2.6km/h 4.5mph /  7.2km/h 84% 0in /  0.0mm 0 W/m2
20:58 66.9 °F /  19.4 °C 62.2 °F /  16.8 °C 30.1in /  1017.8hPa NNW 0.7mph /  1.1km/h 4.5mph /  7.2km/h 85% 0in /  0.0mm 0 W/m2
21:03 66.7 °F /  19.3 °C 62.1 °F /  16.7 °C 30.1in /  1017.8hPa Calm   3.8mph /  6.1km/h 85% 0in /  0.0mm 0 W/m2
21:08 66.6 °F /  19.2 °C 61.9 °F /  16.6 °C 30.1in /  1017.8hPa NE 1.6mph /  2.6km/h 3.1mph /  5.0km/h 85% 0in /  0.0mm 0 W/m2
21:13 66.4 °F /  19.1 °C 61.3 °F /  16.3 °C 30.1in /  1017.8hPa Calm   2.2mph /  3.5km/h 84% 0in /  0.0mm 0 W/m2
21:18 66 °F /  18.9 °C 61.3 °F /  16.3 °C 30.1in /  1018.2hPa Calm   2.2mph /  3.5km/h 85% 0in /  0.0mm 0 W/m2
21:23 65.7 °F /  18.7 °C 61.2 °F /  16.2 °C 30.1in /  1017.8hPa Calm   1.6mph /  2.6km/h 85% 0in /  0.0mm 0 W/m2
21:28 65.7 °F /  18.7 °C 60.6 °F /  15.9 °C 30.1in /  1017.8hPa NE 0.7mph /  1.1km/h 3.1mph /  5.0km/h 84% 0in /  0.0mm 0 W/m2
21:33 65.5 °F /  18.6 °C 60.4 °F /  15.8 °C 30.1in /  1017.8hPa Calm   3.1mph /  5.0km/h 84% 0in /  0.0mm 0 W/m2
21:38 65.3 °F /  18.5 °C 60.1 °F /  15.6 °C 30.1in /  1018.2hPa Calm   3.1mph /  5.0km/h 83% 0in /  0.0mm 0 W/m2
21:43 65.1 °F /  18.4 °C 59.7 °F /  15.4 °C 30.1in /  1018.2hPa Calm   1.6mph /  2.6km/h 83% 0in /  0.0mm 0 W/m2
21:48 64.9 °F /  18.3 °C 59.7 °F /  15.4 °C 30.1in /  1018.2hPa Calm   0.7mph /  1.1km/h 83% 0in /  0.0mm 0 W/m2
21:53 64.6 °F /  18.1 °C 59.4 °F /  15.2 °C 30.1in /  1018.2hPa Calm   0.7mph /  1.1km/h 83% 0in /  0.0mm 0 W/m2
21:58 64.4 °F /  18.0 °C 59.5 °F /  15.3 °C 30.1in /  1018.5hPa Calm   0.7mph /  1.1km/h 84% 0in /  0.0mm 0 W/m2
22:03 64.2 °F /  17.9 °C 59 °F /  15.0 °C 30.1in /  1018.2hPa Calm   0.7mph /  1.1km/h 83% 0in /  0.0mm 0 W/m2
22:08 64 °F /  17.8 °C 59.2 °F /  15.1 °C 30.1in /  1018.2hPa Calm   0.7mph /  1.1km/h 84% 0in /  0.0mm 0 W/m2
22:13 64 °F /  17.8 °C 58.8 °F /  14.9 °C 30.1in /  1018.5hPa Calm   1.6mph /  2.6km/h 83% 0in /  0.0mm 0 W/m2
22:18 63.9 °F /  17.7 °C 58.6 °F /  14.8 °C 30.1in /  1018.5hPa Calm   2.2mph /  3.5km/h 83% 0in /  0.0mm 0 W/m2
22:23 63.7 °F /  17.6 °C 58.5 °F /  14.7 °C 30.1in /  1018.5hPa Calm   2.2mph /  3.5km/h 83% 0in /  0.0mm 0 W/m2
22:28 63.7 °F /  17.6 °C 58.5 °F /  14.7 °C 30.1in /  1018.2hPa Calm   2.2mph /  3.5km/h 83% 0in /  0.0mm 0 W/m2
22:33 63.5 °F /  17.5 °C 58.3 °F /  14.6 °C 30.1in /  1018.5hPa Calm   0.7mph /  1.1km/h 83% 0in /  0.0mm 0 W/m2
22:38 63.3 °F /  17.4 °C 58.5 °F /  14.7 °C 30.1in /  1018.5hPa Calm   0.7mph /  1.1km/h 84% 0in /  0.0mm 0 W/m2
22:43 63.3 °F /  17.4 °C 58.5 °F /  14.7 °C 30.1in /  1018.5hPa Calm   0.7mph /  1.1km/h 84% 0in /  0.0mm 0 W/m2
23:00 63.1 °F /  17.3 °C 58.3 °F /  14.6 °C 30.1in /  1018.2hPa Calm   1.6mph /  2.6km/h 84% 0in /  0.0mm 0 W/m2
23:05 63.1 °F /  17.3 °C 58.3 °F /  14.6 °C 30.1in /  1018.2hPa Calm   1.6mph /  2.6km/h 84% 0in /  0.0mm 0 W/m2
23:10 63 °F /  17.2 °C 58.1 °F /  14.5 °C 30.1in /  1018.5hPa Calm   0.7mph /  1.1km/h 84% 0in /  0.0mm 0 W/m2
23:15 62.6 °F /  17.0 °C 57.7 °F /  14.3 °C 30.1in /  1018.5hPa Calm     84% 0in /  0.0mm 0 W/m2
23:20 62.6 °F /  17.0 °C 57.7 °F /  14.3 °C 30.1in /  1018.5hPa Calm     84% 0in /  0.0mm 0 W/m2
23:25 62.2 °F /  16.8 °C 57.9 °F /  14.4 °C 30.1in /  1018.2hPa Calm     86% 0in /  0.0mm 0 W/m2
23:30 62.2 °F /  16.8 °C 57.9 °F /  14.4 °C 30.1in /  1018.2hPa Calm     86% 0in /  0.0mm 0 W/m2
23:35 62.2 °F /  16.8 °C 57.9 °F /  14.4 °C 30.1in /  1018.2hPa Calm     86% 0in /  0.0mm 0 W/m2
23:40 62.2 °F /  16.8 °C 58.3 °F /  14.6 °C 30.1in /  1018.5hPa Calm   0.7mph /  1.1km/h 87% 0in /  0.0mm 0 W/m2
23:45 62.2 °F /  16.8 °C 58.3 °F /  14.6 °C 30.1in /  1018.5hPa Calm   0.7mph /  1.1km/h 87% 0in /  0.0mm 0 W/m2
23:50 62.2 °F /  16.8 °C 58.3 °F /  14.6 °C 30.1in /  1018.2hPa Calm   0.7mph /  1.1km/h 87% 0in /  0.0mm 0 W/m2
23:55 62.2 °F /  16.8 °C 58.3 °F /  14.6 °C 30.1in /  1018.5hPa Calm   0.7mph /  1.1km/h 87% 0in /  0.0mm 0 W/m2
Northern Hawkes Bay. New Zealand Historic Data
Compliments of Weather Underground - 2.25 mb